MSR705 HECA-LIMC
Flight info
| Callsign | MSR705 |
|---|---|
| Flight time | 4h 0m |
| Altitude | 38000 |
| Route | CVO L617 TANSA UL613 KOR UL53 IXONI DCT OLGAT DCT PES DCT TUFTE DCT LOMED DCT BEROK DCT MIVKI DCT GOLAS DCT MEBUR |
| Aircraft | B77W/H-SDE1E2E3FGHIJ2J3J4J5M1RWXY/LB1D1 |
Departure
| Time | 2026-05-06 14:05 |
|---|---|
| Airport | Cairo International Airport (HECA) |
Arrival
| Time | 2026-05-06 18:06 |
|---|---|
| Airport | Milan Malpensa International Airport (LIMC) |
| Time | Latitude | Longitude | Altitude | Speed | Heading |
|---|---|---|---|---|---|
| 2026-05-06 13:54 | 30.10958 | 31.40040 | 367 ft | 0 kts | 288° |
| 2026-05-06 13:55 | 30.10955 | 31.40049 | 366 ft | 4 kts | 289° |
| 2026-05-06 13:55 | 30.10945 | 31.40078 | 367 ft | 4 kts | 297° |
| 2026-05-06 13:56 | 30.10932 | 31.40104 | 368 ft | 4 kts | 310° |
| 2026-05-06 13:56 | 30.10912 | 31.40124 | 367 ft | 4 kts | 345° |
| 2026-05-06 13:56 | 30.10899 | 31.40125 | 369 ft | 1 kts | 17° |
| 2026-05-06 13:58 | 30.10908 | 31.40128 | 367 ft | 3 kts | 17° |
| 2026-05-06 13:59 | 30.10942 | 31.40142 | 369 ft | 7 kts | 25° |
| 2026-05-06 13:59 | 30.10973 | 31.40197 | 370 ft | 9 kts | 88° |
| 2026-05-06 13:59 | 30.10958 | 31.40276 | 374 ft | 11 kts | 105° |
| 2026-05-06 13:59 | 30.10936 | 31.40359 | 377 ft | 11 kts | 107° |
| 2026-05-06 14:00 | 30.10906 | 31.40436 | 382 ft | 11 kts | 135° |
| 2026-05-06 14:00 | 30.10836 | 31.40423 | 385 ft | 12 kts | 220° |
| 2026-05-06 14:00 | 30.10777 | 31.40353 | 388 ft | 13 kts | 229° |
| 2026-05-06 14:00 | 30.10712 | 31.40268 | 392 ft | 15 kts | 229° |
| 2026-05-06 14:01 | 30.10633 | 31.40163 | 388 ft | 21 kts | 229° |
| 2026-05-06 14:01 | 30.10527 | 31.40020 | 383 ft | 26 kts | 229° |
| 2026-05-06 14:01 | 30.10424 | 31.39884 | 385 ft | 21 kts | 229° |
| 2026-05-06 14:01 | 30.10326 | 31.39754 | 387 ft | 21 kts | 229° |
| 2026-05-06 14:02 | 30.10229 | 31.39623 | 392 ft | 21 kts | 229° |
| 2026-05-06 14:02 | 30.10103 | 31.39610 | 391 ft | 21 kts | 140° |
| 2026-05-06 14:02 | 30.10063 | 31.39648 | 394 ft | 4 kts | 140° |
| 2026-05-06 14:02 | 30.10041 | 31.39671 | 393 ft | 5 kts | 135° |
| 2026-05-06 14:03 | 30.10019 | 31.39705 | 393 ft | 6 kts | 120° |
| 2026-05-06 14:03 | 30.10006 | 31.39753 | 393 ft | 7 kts | 97° |
| 2026-05-06 14:03 | 30.10003 | 31.39810 | 393 ft | 7 kts | 93° |
| 2026-05-06 14:03 | 30.10009 | 31.39868 | 393 ft | 7 kts | 72° |
| 2026-05-06 14:04 | 30.10037 | 31.39921 | 393 ft | 8 kts | 51° |
| 2026-05-06 14:04 | 30.10047 | 31.39934 | 393 ft | 1 kts | 50° |
| 2026-05-06 14:04 | 30.10064 | 31.39958 | 393 ft | 15 kts | 49° |
| 2026-05-06 14:04 | 30.10321 | 31.40297 | 389 ft | 98 kts | 49° |
| 2026-05-06 14:05 | 30.10940 | 31.41116 | 397 ft | 168 kts | 47° |
| 2026-05-06 14:05 | 30.11778 | 31.42209 | 747 ft | 194 kts | 47° |
| 2026-05-06 14:05 | 30.12710 | 31.43395 | 1419 ft | 201 kts | 45° |
| 2026-05-06 14:05 | 30.13799 | 31.44356 | 2238 ft | 194 kts | 20° |
| 2026-05-06 14:06 | 30.15168 | 31.44526 | 2612 ft | 212 kts | 351° |
| 2026-05-06 14:06 | 30.16697 | 31.44160 | 2896 ft | 238 kts | 346° |
| 2026-05-06 14:06 | 30.18277 | 31.43522 | 3516 ft | 245 kts | 327° |
| 2026-05-06 14:06 | 30.19559 | 31.42199 | 4239 ft | 250 kts | 313° |
| 2026-05-06 14:07 | 30.20759 | 31.40721 | 4961 ft | 260 kts | 313° |
| 2026-05-06 14:07 | 30.22020 | 31.39159 | 5870 ft | 265 kts | 312° |
| 2026-05-06 14:07 | 30.23276 | 31.37597 | 6766 ft | 268 kts | 312° |
| 2026-05-06 14:07 | 30.24539 | 31.36025 | 7657 ft | 271 kts | 313° |
| 2026-05-06 14:08 | 30.25836 | 31.34417 | 8514 ft | 275 kts | 312° |
| 2026-05-06 14:08 | 30.27148 | 31.32789 | 9346 ft | 279 kts | 313° |
| 2026-05-06 14:08 | 30.28483 | 31.31134 | 10180 ft | 283 kts | 313° |
| 2026-05-06 14:08 | 30.29857 | 31.29432 | 10737 ft | 300 kts | 312° |
| 2026-05-06 14:09 | 30.31319 | 31.27621 | 10947 ft | 328 kts | 313° |
| 2026-05-06 14:09 | 30.32975 | 31.25573 | 11175 ft | 356 kts | 313° |
| 2026-05-06 14:09 | 30.34681 | 31.23462 | 11851 ft | 369 kts | 313° |
| 2026-05-06 14:09 | 30.36477 | 31.21241 | 12821 ft | 376 kts | 313° |
| 2026-05-06 14:10 | 30.38248 | 31.19050 | 13867 ft | 379 kts | 312° |
| 2026-05-06 14:10 | 30.40060 | 31.16808 | 14865 ft | 384 kts | 312° |
| 2026-05-06 14:10 | 30.41890 | 31.14542 | 15875 ft | 387 kts | 312° |
| 2026-05-06 14:10 | 30.43743 | 31.12245 | 16846 ft | 391 kts | 311° |
| 2026-05-06 14:11 | 30.45611 | 31.09927 | 17752 ft | 396 kts | 311° |
| 2026-05-06 14:11 | 30.47500 | 31.07580 | 18628 ft | 401 kts | 311° |
| 2026-05-06 14:11 | 30.49413 | 31.05204 | 19471 ft | 406 kts | 311° |
| 2026-05-06 14:11 | 30.51349 | 31.02799 | 20285 ft | 410 kts | 311° |
| 2026-05-06 14:12 | 30.53307 | 31.00363 | 21067 ft | 415 kts | 311° |
| 2026-05-06 14:12 | 30.55283 | 30.97907 | 21822 ft | 419 kts | 311° |
| 2026-05-06 14:12 | 30.57283 | 30.95418 | 22536 ft | 424 kts | 311° |
| 2026-05-06 14:12 | 30.59301 | 30.92903 | 23227 ft | 428 kts | 311° |
| 2026-05-06 14:13 | 30.61343 | 30.90357 | 23898 ft | 432 kts | 311° |
| 2026-05-06 14:13 | 30.63402 | 30.87788 | 24546 ft | 437 kts | 311° |
| 2026-05-06 14:13 | 30.65479 | 30.85194 | 25200 ft | 440 kts | 311° |
| 2026-05-06 14:13 | 30.67569 | 30.82582 | 25842 ft | 444 kts | 311° |
| 2026-05-06 14:14 | 30.69680 | 30.79945 | 26440 ft | 447 kts | 311° |
| 2026-05-06 14:14 | 30.71776 | 30.77324 | 27032 ft | 450 kts | 310° |
| 2026-05-06 14:14 | 30.73912 | 30.74648 | 27591 ft | 453 kts | 310° |
| 2026-05-06 14:14 | 30.76063 | 30.71954 | 28119 ft | 457 kts | 310° |
| 2026-05-06 14:15 | 30.78225 | 30.69245 | 28644 ft | 459 kts | 310° |
| 2026-05-06 14:15 | 30.80411 | 30.66504 | 29121 ft | 462 kts | 310° |
| 2026-05-06 14:15 | 30.82594 | 30.63763 | 29547 ft | 464 kts | 310° |
| 2026-05-06 14:15 | 30.84796 | 30.60998 | 29988 ft | 466 kts | 310° |
| 2026-05-06 14:16 | 30.86999 | 30.58228 | 30500 ft | 465 kts | 310° |
| 2026-05-06 14:16 | 30.89195 | 30.55465 | 31038 ft | 464 kts | 310° |
| 2026-05-06 14:16 | 30.91377 | 30.52718 | 31561 ft | 462 kts | 310° |
| 2026-05-06 14:16 | 30.93559 | 30.49972 | 32086 ft | 461 kts | 310° |
| 2026-05-06 14:17 | 30.95732 | 30.47231 | 32563 ft | 460 kts | 310° |
| 2026-05-06 14:17 | 30.97903 | 30.44490 | 33011 ft | 460 kts | 310° |
| 2026-05-06 14:17 | 31.00055 | 30.41774 | 33474 ft | 459 kts | 310° |
| 2026-05-06 14:17 | 31.02217 | 30.39042 | 33961 ft | 457 kts | 310° |
| 2026-05-06 14:18 | 31.04365 | 30.36324 | 34365 ft | 456 kts | 310° |
| 2026-05-06 14:18 | 31.06469 | 30.33562 | 34738 ft | 455 kts | 306° |
| 2026-05-06 14:18 | 31.08258 | 30.30531 | 35100 ft | 452 kts | 298° |
| 2026-05-06 14:18 | 31.09763 | 30.27322 | 35462 ft | 451 kts | 294° |
| 2026-05-06 14:19 | 31.10994 | 30.23971 | 35820 ft | 449 kts | 287° |
| 2026-05-06 14:19 | 31.11951 | 30.20509 | 36162 ft | 448 kts | 286° |
| 2026-05-06 14:19 | 31.12868 | 30.17034 | 36467 ft | 448 kts | 285° |
| 2026-05-06 14:19 | 31.13785 | 30.13560 | 36789 ft | 448 kts | 286° |
| 2026-05-06 14:20 | 31.14709 | 30.10115 | 37322 ft | 441 kts | 286° |
| 2026-05-06 14:20 | 31.15632 | 30.06721 | 37794 ft | 437 kts | 286° |
| 2026-05-06 14:20 | 31.16557 | 30.03330 | 37997 ft | 440 kts | 286° |
| 2026-05-06 14:20 | 31.17502 | 29.99914 | 38043 ft | 444 kts | 288° |
| 2026-05-06 14:21 | 31.20113 | 29.93338 | 38086 ft | 447 kts | 297° |
| 2026-05-06 14:21 | 31.23555 | 29.87340 | 38106 ft | 444 kts | 303° |
| 2026-05-06 14:22 | 31.27205 | 29.81577 | 38102 ft | 443 kts | 304° |
| 2026-05-06 14:22 | 31.30851 | 29.75787 | 38106 ft | 442 kts | 303° |
| 2026-05-06 14:23 | 31.34348 | 29.70191 | 38105 ft | 443 kts | 303° |
| 2026-05-06 14:23 | 31.37950 | 29.64395 | 38109 ft | 443 kts | 303° |
| 2026-05-06 14:24 | 31.41578 | 29.58545 | 38102 ft | 445 kts | 303° |
| 2026-05-06 14:24 | 31.45219 | 29.52670 | 38106 ft | 446 kts | 303° |
| 2026-05-06 14:25 | 31.48859 | 29.46788 | 38103 ft | 446 kts | 303° |
| 2026-05-06 14:25 | 31.52500 | 29.40895 | 38106 ft | 446 kts | 303° |
| 2026-05-06 14:26 | 31.56142 | 29.34994 | 38110 ft | 446 kts | 303° |
| 2026-05-06 14:26 | 31.59779 | 29.29083 | 38112 ft | 447 kts | 303° |
| 2026-05-06 14:27 | 31.63394 | 29.23161 | 38111 ft | 446 kts | 303° |
| 2026-05-06 14:27 | 31.66999 | 29.17237 | 38113 ft | 446 kts | 303° |
| 2026-05-06 14:28 | 31.70600 | 29.11318 | 38110 ft | 445 kts | 303° |
| 2026-05-06 14:28 | 31.74611 | 29.05833 | 38118 ft | 447 kts | 313° |
| 2026-05-06 14:29 | 31.79382 | 29.01042 | 38118 ft | 449 kts | 318° |
| 2026-05-06 14:29 | 31.84243 | 28.96428 | 38109 ft | 449 kts | 318° |
| 2026-05-06 14:30 | 31.89088 | 28.91800 | 38111 ft | 449 kts | 317° |
| 2026-05-06 14:30 | 31.93916 | 28.87152 | 38110 ft | 448 kts | 317° |
| 2026-05-06 14:31 | 31.98737 | 28.82489 | 38111 ft | 448 kts | 317° |
| 2026-05-06 14:31 | 32.03552 | 28.77824 | 38112 ft | 448 kts | 317° |
| 2026-05-06 14:32 | 32.08330 | 28.73193 | 38112 ft | 448 kts | 317° |
| 2026-05-06 14:32 | 32.13136 | 28.68526 | 38110 ft | 447 kts | 317° |
| 2026-05-06 14:33 | 32.17940 | 28.63852 | 38114 ft | 447 kts | 317° |
| 2026-05-06 14:33 | 32.22736 | 28.59181 | 38109 ft | 447 kts | 317° |
| 2026-05-06 14:34 | 32.27534 | 28.54502 | 38112 ft | 447 kts | 317° |
| 2026-05-06 14:34 | 32.32326 | 28.49824 | 38107 ft | 447 kts | 317° |
| 2026-05-06 14:35 | 32.37104 | 28.45151 | 38102 ft | 447 kts | 317° |
| 2026-05-06 14:35 | 32.41870 | 28.40483 | 38133 ft | 446 kts | 317° |
| 2026-05-06 14:36 | 32.46649 | 28.35796 | 38135 ft | 446 kts | 317° |
| 2026-05-06 14:36 | 32.51426 | 28.31101 | 38131 ft | 446 kts | 317° |
| 2026-05-06 14:37 | 32.56207 | 28.26402 | 38133 ft | 447 kts | 317° |
| 2026-05-06 14:37 | 32.60950 | 28.21731 | 38132 ft | 447 kts | 317° |
| 2026-05-06 14:38 | 32.65725 | 28.17022 | 38133 ft | 447 kts | 317° |
| 2026-05-06 14:38 | 32.70508 | 28.12296 | 38127 ft | 447 kts | 317° |
| 2026-05-06 14:39 | 32.75258 | 28.07599 | 38131 ft | 447 kts | 317° |
| 2026-05-06 14:39 | 32.80038 | 28.02859 | 38126 ft | 448 kts | 317° |
| 2026-05-06 14:40 | 32.84820 | 27.98116 | 38130 ft | 448 kts | 317° |
| 2026-05-06 14:40 | 32.89606 | 27.93363 | 38130 ft | 448 kts | 318° |
| 2026-05-06 14:41 | 32.93609 | 27.89385 | 38129 ft | 448 kts | 317° |
| 2026-05-06 14:41 | 32.98388 | 27.84621 | 38122 ft | 448 kts | 318° |
| 2026-05-06 14:42 | 33.03159 | 27.79860 | 38117 ft | 447 kts | 318° |
| 2026-05-06 14:42 | 33.07924 | 27.75096 | 38121 ft | 447 kts | 318° |
| 2026-05-06 14:43 | 33.12653 | 27.70362 | 38118 ft | 446 kts | 317° |
| 2026-05-06 14:43 | 33.17440 | 27.65569 | 38114 ft | 446 kts | 318° |
| 2026-05-06 14:44 | 33.22161 | 27.60834 | 38113 ft | 446 kts | 318° |
| 2026-05-06 14:45 | 33.29293 | 27.53666 | 38112 ft | 447 kts | 317° |
| 2026-05-06 14:45 | 33.34051 | 27.48871 | 38103 ft | 447 kts | 318° |
| 2026-05-06 14:46 | 33.38806 | 27.44078 | 38103 ft | 447 kts | 318° |
| 2026-05-06 14:46 | 33.43561 | 27.39273 | 38105 ft | 447 kts | 317° |
| 2026-05-06 14:47 | 33.48320 | 27.34459 | 38105 ft | 448 kts | 318° |
| 2026-05-06 14:47 | 33.53074 | 27.29643 | 38095 ft | 447 kts | 317° |
| 2026-05-06 14:48 | 33.57824 | 27.24821 | 38092 ft | 447 kts | 317° |
| 2026-05-06 14:48 | 33.62572 | 27.19996 | 38094 ft | 447 kts | 317° |
| 2026-05-06 14:49 | 33.67321 | 27.15162 | 38077 ft | 447 kts | 317° |
| 2026-05-06 14:49 | 33.72061 | 27.10330 | 38099 ft | 446 kts | 317° |
| 2026-05-06 14:50 | 33.76796 | 27.05497 | 38088 ft | 447 kts | 317° |
| 2026-05-06 14:50 | 33.81530 | 27.00657 | 38090 ft | 446 kts | 317° |
| 2026-05-06 14:51 | 33.86258 | 26.95816 | 38089 ft | 446 kts | 317° |
| 2026-05-06 14:51 | 33.90986 | 26.90969 | 38085 ft | 446 kts | 318° |
| 2026-05-06 14:52 | 33.95671 | 26.86155 | 38095 ft | 446 kts | 318° |
| 2026-05-06 14:52 | 34.00421 | 26.81272 | 38081 ft | 446 kts | 318° |
| 2026-05-06 14:53 | 34.05271 | 26.76655 | 38081 ft | 447 kts | 321° |
| 2026-05-06 14:53 | 34.10270 | 26.72111 | 38082 ft | 447 kts | 321° |
| 2026-05-06 14:54 | 34.15226 | 26.67566 | 38084 ft | 448 kts | 321° |
| 2026-05-06 14:54 | 34.20132 | 26.63015 | 38080 ft | 448 kts | 321° |
| 2026-05-06 14:55 | 34.25067 | 26.58413 | 38081 ft | 448 kts | 321° |
| 2026-05-06 14:55 | 34.29987 | 26.53817 | 38088 ft | 447 kts | 321° |
| 2026-05-06 14:56 | 34.34909 | 26.49216 | 38081 ft | 447 kts | 321° |
| 2026-05-06 14:56 | 34.39823 | 26.44615 | 38079 ft | 446 kts | 321° |
| 2026-05-06 14:57 | 34.44729 | 26.40012 | 38082 ft | 446 kts | 321° |
| 2026-05-06 14:57 | 34.49630 | 26.35410 | 38090 ft | 446 kts | 321° |
| 2026-05-06 14:58 | 34.54532 | 26.30796 | 38080 ft | 446 kts | 321° |
| 2026-05-06 14:58 | 34.59434 | 26.26179 | 38081 ft | 446 kts | 321° |
| 2026-05-06 14:59 | 34.64333 | 26.21556 | 38092 ft | 446 kts | 321° |
| 2026-05-06 14:59 | 34.69233 | 26.16924 | 38081 ft | 447 kts | 321° |
| 2026-05-06 15:00 | 34.74140 | 26.12281 | 38081 ft | 447 kts | 321° |
| 2026-05-06 15:00 | 34.79047 | 26.07626 | 38091 ft | 448 kts | 321° |
| 2026-05-06 15:01 | 34.83959 | 26.02961 | 38082 ft | 448 kts | 321° |
| 2026-05-06 15:01 | 34.88866 | 25.98294 | 38093 ft | 448 kts | 321° |
| 2026-05-06 15:02 | 34.93779 | 25.93615 | 38093 ft | 448 kts | 321° |
| 2026-05-06 15:02 | 34.98653 | 25.88965 | 38093 ft | 448 kts | 321° |
| 2026-05-06 15:03 | 35.03585 | 25.84253 | 38086 ft | 447 kts | 321° |
| 2026-05-06 15:03 | 35.08446 | 25.79599 | 38089 ft | 447 kts | 321° |
| 2026-05-06 15:04 | 35.13334 | 25.74903 | 38098 ft | 447 kts | 321° |
| 2026-05-06 15:04 | 35.18218 | 25.70193 | 38087 ft | 447 kts | 321° |
| 2026-05-06 15:05 | 35.23099 | 25.65486 | 38104 ft | 446 kts | 321° |
| 2026-05-06 15:05 | 35.27973 | 25.60792 | 38104 ft | 447 kts | 321° |
| 2026-05-06 15:06 | 35.32854 | 25.56086 | 38105 ft | 447 kts | 321° |
| 2026-05-06 15:06 | 35.37744 | 25.51362 | 38103 ft | 447 kts | 321° |
| 2026-05-06 15:07 | 35.42624 | 25.46639 | 38104 ft | 447 kts | 321° |
| 2026-05-06 15:07 | 35.47508 | 25.41905 | 38102 ft | 447 kts | 321° |
| 2026-05-06 15:08 | 35.52384 | 25.37171 | 38101 ft | 447 kts | 321° |
| 2026-05-06 15:08 | 35.57256 | 25.32432 | 38103 ft | 446 kts | 321° |
| 2026-05-06 15:09 | 35.62117 | 25.27699 | 38104 ft | 447 kts | 321° |
| 2026-05-06 15:09 | 35.66988 | 25.22951 | 38101 ft | 447 kts | 321° |
| 2026-05-06 15:10 | 35.71853 | 25.18194 | 38103 ft | 447 kts | 321° |
| 2026-05-06 15:10 | 35.76716 | 25.13433 | 38101 ft | 447 kts | 321° |
| 2026-05-06 15:11 | 35.81576 | 25.08668 | 38098 ft | 446 kts | 321° |
| 2026-05-06 15:11 | 35.86433 | 25.03901 | 38102 ft | 447 kts | 321° |
| 2026-05-06 15:12 | 35.91289 | 24.99126 | 38102 ft | 446 kts | 321° |
| 2026-05-06 15:12 | 35.96140 | 24.94346 | 38102 ft | 446 kts | 321° |
| 2026-05-06 15:13 | 36.00977 | 24.89572 | 38104 ft | 445 kts | 321° |
| 2026-05-06 15:13 | 36.05813 | 24.84794 | 38100 ft | 445 kts | 321° |
| 2026-05-06 15:14 | 36.10644 | 24.80016 | 38103 ft | 445 kts | 321° |
| 2026-05-06 15:14 | 36.15478 | 24.75228 | 38102 ft | 445 kts | 321° |
| 2026-05-06 15:15 | 36.20307 | 24.70434 | 38103 ft | 445 kts | 321° |
| 2026-05-06 15:15 | 36.25136 | 24.65637 | 38104 ft | 444 kts | 321° |
| 2026-05-06 15:16 | 36.29954 | 24.60839 | 38109 ft | 444 kts | 321° |
| 2026-05-06 15:16 | 36.34769 | 24.56036 | 38100 ft | 444 kts | 321° |
| 2026-05-06 15:17 | 36.39553 | 24.51255 | 38081 ft | 444 kts | 321° |
| 2026-05-06 15:17 | 36.44367 | 24.46440 | 38093 ft | 444 kts | 321° |
| 2026-05-06 15:18 | 36.49173 | 24.41624 | 38087 ft | 444 kts | 321° |
| 2026-05-06 15:18 | 36.53977 | 24.36797 | 38080 ft | 444 kts | 321° |
| 2026-05-06 15:19 | 36.58776 | 24.31964 | 38081 ft | 444 kts | 320° |
| 2026-05-06 15:19 | 36.63568 | 24.27127 | 38079 ft | 444 kts | 320° |
| 2026-05-06 15:20 | 36.68364 | 24.22283 | 38082 ft | 444 kts | 320° |
| 2026-05-06 15:20 | 36.73162 | 24.17430 | 38090 ft | 444 kts | 320° |
| 2026-05-06 15:21 | 36.77950 | 24.12575 | 38083 ft | 444 kts | 320° |
| 2026-05-06 15:21 | 36.82743 | 24.07708 | 38095 ft | 444 kts | 320° |
| 2026-05-06 15:22 | 36.87536 | 24.02832 | 38094 ft | 445 kts | 320° |
| 2026-05-06 15:22 | 36.92332 | 23.97949 | 38091 ft | 445 kts | 320° |
| 2026-05-06 15:23 | 36.97126 | 23.93066 | 38084 ft | 444 kts | 320° |
| 2026-05-06 15:23 | 37.01920 | 23.88176 | 38071 ft | 445 kts | 320° |
| 2026-05-06 15:24 | 37.06707 | 23.83282 | 38073 ft | 444 kts | 320° |
| 2026-05-06 15:24 | 37.11493 | 23.78376 | 38066 ft | 444 kts | 320° |
| 2026-05-06 15:25 | 37.16279 | 23.73469 | 38062 ft | 444 kts | 320° |
| 2026-05-06 15:25 | 37.21055 | 23.68562 | 38066 ft | 444 kts | 320° |
| 2026-05-06 15:26 | 37.25831 | 23.63645 | 38063 ft | 444 kts | 320° |
| 2026-05-06 15:26 | 37.29800 | 23.59553 | 38057 ft | 444 kts | 320° |
| 2026-05-06 15:27 | 37.34579 | 23.54619 | 38055 ft | 444 kts | 320° |
| 2026-05-06 15:27 | 37.39349 | 23.49685 | 38057 ft | 444 kts | 320° |
| 2026-05-06 15:28 | 37.44116 | 23.44747 | 38052 ft | 445 kts | 320° |
| 2026-05-06 15:28 | 37.48890 | 23.39791 | 38049 ft | 445 kts | 320° |
| 2026-05-06 15:29 | 37.53669 | 23.34823 | 38041 ft | 445 kts | 320° |
| 2026-05-06 15:29 | 37.58436 | 23.29859 | 38042 ft | 445 kts | 320° |
| 2026-05-06 15:30 | 37.63208 | 23.24878 | 38038 ft | 445 kts | 320° |
| 2026-05-06 15:30 | 37.67968 | 23.19904 | 38037 ft | 444 kts | 320° |
| 2026-05-06 15:31 | 37.72725 | 23.14926 | 38041 ft | 444 kts | 320° |
| 2026-05-06 15:31 | 37.77485 | 23.09935 | 38034 ft | 444 kts | 320° |
| 2026-05-06 15:32 | 37.84609 | 23.02445 | 38031 ft | 444 kts | 320° |
| 2026-05-06 15:32 | 37.89355 | 22.97450 | 38032 ft | 444 kts | 320° |
| 2026-05-06 15:33 | 37.93769 | 22.92007 | 38040 ft | 443 kts | 311° |
| 2026-05-06 15:33 | 37.97415 | 22.85715 | 38042 ft | 443 kts | 305° |
| 2026-05-06 15:34 | 38.00910 | 22.79265 | 38037 ft | 443 kts | 305° |
| 2026-05-06 15:34 | 38.04431 | 22.72841 | 38044 ft | 443 kts | 306° |
| 2026-05-06 15:35 | 38.07958 | 22.66421 | 38057 ft | 443 kts | 306° |
| 2026-05-06 15:35 | 38.11479 | 22.59996 | 38056 ft | 443 kts | 306° |
| 2026-05-06 15:36 | 38.14974 | 22.53602 | 38060 ft | 443 kts | 305° |
| 2026-05-06 15:36 | 38.18507 | 22.47127 | 38066 ft | 443 kts | 305° |
| 2026-05-06 15:37 | 38.21990 | 22.40729 | 38074 ft | 443 kts | 305° |
| 2026-05-06 15:37 | 38.25493 | 22.34285 | 38078 ft | 443 kts | 305° |
| 2026-05-06 15:38 | 38.28992 | 22.27834 | 38083 ft | 443 kts | 305° |
| 2026-05-06 15:38 | 38.32556 | 22.21441 | 38077 ft | 443 kts | 308° |
| 2026-05-06 15:39 | 38.36387 | 22.15303 | 38095 ft | 442 kts | 309° |
| 2026-05-06 15:39 | 38.40251 | 22.09192 | 38091 ft | 442 kts | 309° |
| 2026-05-06 15:40 | 38.44097 | 22.03072 | 38102 ft | 442 kts | 309° |
| 2026-05-06 15:40 | 38.47931 | 21.96932 | 38108 ft | 442 kts | 309° |
| 2026-05-06 15:41 | 38.51760 | 21.90776 | 38110 ft | 442 kts | 309° |
| 2026-05-06 15:41 | 38.55580 | 21.84621 | 38113 ft | 442 kts | 309° |
| 2026-05-06 15:42 | 38.59401 | 21.78457 | 38110 ft | 442 kts | 309° |
| 2026-05-06 15:42 | 38.63219 | 21.72285 | 38109 ft | 442 kts | 309° |
| 2026-05-06 15:43 | 38.67034 | 21.66108 | 38107 ft | 443 kts | 308° |
| 2026-05-06 15:43 | 38.70848 | 21.59914 | 38107 ft | 443 kts | 308° |
| 2026-05-06 15:44 | 38.74633 | 21.53759 | 38106 ft | 442 kts | 308° |
| 2026-05-06 15:44 | 38.78463 | 21.47520 | 38098 ft | 443 kts | 308° |
| 2026-05-06 15:45 | 38.82268 | 21.41310 | 38101 ft | 443 kts | 308° |
| 2026-05-06 15:45 | 38.86063 | 21.35103 | 38107 ft | 442 kts | 308° |
| 2026-05-06 15:46 | 38.89829 | 21.28932 | 38113 ft | 442 kts | 308° |
| 2026-05-06 15:46 | 38.93612 | 21.22721 | 38117 ft | 441 kts | 308° |
| 2026-05-06 15:47 | 38.97392 | 21.16508 | 38118 ft | 441 kts | 308° |
| 2026-05-06 15:47 | 39.01168 | 21.10285 | 38119 ft | 441 kts | 308° |
| 2026-05-06 15:48 | 39.04934 | 21.04059 | 38118 ft | 441 kts | 308° |
| 2026-05-06 15:48 | 39.08700 | 20.97829 | 38120 ft | 441 kts | 308° |
| 2026-05-06 15:49 | 39.12469 | 20.91583 | 38121 ft | 441 kts | 308° |
| 2026-05-06 15:49 | 39.16227 | 20.85343 | 38121 ft | 441 kts | 308° |
| 2026-05-06 15:50 | 39.19983 | 20.79091 | 38119 ft | 441 kts | 308° |
| 2026-05-06 15:50 | 39.23743 | 20.72819 | 38121 ft | 441 kts | 308° |
| 2026-05-06 15:51 | 39.27495 | 20.66550 | 38117 ft | 442 kts | 307° |
| 2026-05-06 15:51 | 39.31245 | 20.60272 | 38125 ft | 441 kts | 307° |
| 2026-05-06 15:52 | 39.34994 | 20.53983 | 38116 ft | 441 kts | 307° |
| 2026-05-06 15:52 | 39.38708 | 20.47741 | 38127 ft | 441 kts | 307° |
| 2026-05-06 15:53 | 39.42469 | 20.41406 | 38119 ft | 441 kts | 307° |
| 2026-05-06 15:53 | 39.46181 | 20.35140 | 38117 ft | 441 kts | 307° |
| 2026-05-06 15:54 | 39.49908 | 20.28841 | 38118 ft | 440 kts | 307° |
| 2026-05-06 15:54 | 39.53630 | 20.22537 | 38119 ft | 441 kts | 307° |
| 2026-05-06 15:55 | 39.57345 | 20.16230 | 38132 ft | 441 kts | 307° |
| 2026-05-06 15:55 | 39.61059 | 20.09911 | 38129 ft | 441 kts | 307° |
| 2026-05-06 15:56 | 39.64556 | 20.03951 | 38130 ft | 440 kts | 307° |
| 2026-05-06 15:56 | 39.68267 | 19.97620 | 38128 ft | 440 kts | 307° |
| 2026-05-06 15:57 | 39.71964 | 19.91291 | 38129 ft | 440 kts | 307° |
| 2026-05-06 15:57 | 39.75431 | 19.85347 | 38131 ft | 440 kts | 307° |
| 2026-05-06 15:58 | 39.79072 | 19.79097 | 38128 ft | 440 kts | 307° |
| 2026-05-06 15:58 | 39.82147 | 19.73804 | 38125 ft | 440 kts | 306° |
| 2026-05-06 15:59 | 39.85446 | 19.68117 | 38131 ft | 440 kts | 306° |
| 2026-05-06 15:59 | 39.87963 | 19.63773 | 38125 ft | 441 kts | 306° |
| 2026-05-06 16:00 | 39.90594 | 19.59225 | 38130 ft | 441 kts | 306° |
| 2026-05-06 16:00 | 39.93002 | 19.55054 | 38127 ft | 441 kts | 306° |
| 2026-05-06 16:01 | 39.95297 | 19.51076 | 38120 ft | 441 kts | 306° |
| 2026-05-06 16:01 | 39.97517 | 19.47221 | 38121 ft | 441 kts | 306° |
| 2026-05-06 16:02 | 40.00115 | 19.42708 | 38120 ft | 441 kts | 306° |
| 2026-05-06 16:02 | 40.02529 | 19.38508 | 38100 ft | 422 kts | 306° |
| 2026-05-06 16:03 | 40.04884 | 19.34402 | 38108 ft | 401 kts | 306° |
| 2026-05-06 16:03 | 40.07108 | 19.30519 | 38102 ft | 389 kts | 306° |
| 2026-05-06 16:04 | 40.09320 | 19.26651 | 38107 ft | 386 kts | 306° |
| 2026-05-06 16:04 | 40.11509 | 19.22822 | 38112 ft | 385 kts | 306° |
| 2026-05-06 16:05 | 40.13909 | 19.18621 | 38108 ft | 384 kts | 306° |
| 2026-05-06 16:05 | 40.16397 | 19.14253 | 38110 ft | 383 kts | 306° |
| 2026-05-06 16:06 | 40.19304 | 19.09150 | 38116 ft | 384 kts | 306° |
| 2026-05-06 16:06 | 40.22407 | 19.03692 | 38118 ft | 386 kts | 306° |
| 2026-05-06 16:07 | 40.25491 | 18.98064 | 38102 ft | 388 kts | 303° |
| 2026-05-06 16:07 | 40.28408 | 18.92132 | 38101 ft | 390 kts | 302° |
| 2026-05-06 16:08 | 40.31327 | 18.86127 | 38103 ft | 392 kts | 302° |
| 2026-05-06 16:08 | 40.34265 | 18.80092 | 38105 ft | 393 kts | 302° |
| 2026-05-06 16:09 | 40.37206 | 18.74059 | 38102 ft | 393 kts | 302° |
| 2026-05-06 16:09 | 40.40145 | 18.68022 | 38103 ft | 392 kts | 302° |
| 2026-05-06 16:10 | 40.43073 | 18.62005 | 38094 ft | 391 kts | 302° |
| 2026-05-06 16:10 | 40.45991 | 18.55993 | 38093 ft | 389 kts | 302° |
| 2026-05-06 16:11 | 40.48890 | 18.50004 | 38082 ft | 388 kts | 302° |
| 2026-05-06 16:11 | 40.51781 | 18.44025 | 38092 ft | 387 kts | 302° |
| 2026-05-06 16:12 | 40.54660 | 18.38059 | 38091 ft | 386 kts | 302° |
| 2026-05-06 16:12 | 40.57533 | 18.32090 | 38094 ft | 386 kts | 302° |
| 2026-05-06 16:13 | 40.60412 | 18.26100 | 38083 ft | 388 kts | 302° |
| 2026-05-06 16:13 | 40.63293 | 18.20094 | 38086 ft | 389 kts | 302° |
| 2026-05-06 16:14 | 40.65696 | 18.15076 | 38090 ft | 390 kts | 302° |
| 2026-05-06 16:14 | 40.68591 | 18.09020 | 38077 ft | 391 kts | 302° |
| 2026-05-06 16:15 | 40.71492 | 18.02937 | 38076 ft | 392 kts | 301° |
| 2026-05-06 16:15 | 40.74390 | 17.96851 | 38074 ft | 392 kts | 301° |
| 2026-05-06 16:16 | 40.77282 | 17.90763 | 38072 ft | 392 kts | 301° |
| 2026-05-06 16:16 | 40.80171 | 17.84670 | 38073 ft | 391 kts | 301° |
| 2026-05-06 16:17 | 40.83047 | 17.78592 | 38073 ft | 390 kts | 301° |
| 2026-05-06 16:17 | 40.85918 | 17.72515 | 38073 ft | 389 kts | 301° |
| 2026-05-06 16:18 | 40.88776 | 17.66451 | 38072 ft | 389 kts | 301° |
| 2026-05-06 16:18 | 40.91631 | 17.60381 | 38075 ft | 388 kts | 301° |
| 2026-05-06 16:19 | 40.94480 | 17.54320 | 38074 ft | 388 kts | 301° |
| 2026-05-06 16:19 | 40.97322 | 17.48251 | 38075 ft | 388 kts | 301° |
| 2026-05-06 16:20 | 41.00150 | 17.42203 | 38075 ft | 389 kts | 301° |
| 2026-05-06 16:20 | 41.03014 | 17.36067 | 38075 ft | 390 kts | 301° |
| 2026-05-06 16:21 | 41.05844 | 17.29993 | 38091 ft | 390 kts | 301° |
| 2026-05-06 16:21 | 41.08692 | 17.23868 | 38084 ft | 391 kts | 301° |
| 2026-05-06 16:22 | 41.11543 | 17.17723 | 38082 ft | 392 kts | 301° |
| 2026-05-06 16:22 | 41.14394 | 17.11564 | 38079 ft | 392 kts | 301° |
| 2026-05-06 16:23 | 41.17245 | 17.05394 | 38072 ft | 392 kts | 301° |
| 2026-05-06 16:23 | 41.20086 | 16.99233 | 38074 ft | 391 kts | 301° |
| 2026-05-06 16:24 | 41.22923 | 16.93069 | 38072 ft | 391 kts | 301° |
| 2026-05-06 16:24 | 41.25750 | 16.86915 | 38075 ft | 390 kts | 301° |
| 2026-05-06 16:25 | 41.28571 | 16.80758 | 38080 ft | 389 kts | 301° |
| 2026-05-06 16:25 | 41.31381 | 16.74613 | 38082 ft | 389 kts | 300° |
| 2026-05-06 16:26 | 41.34188 | 16.68465 | 38078 ft | 389 kts | 300° |
| 2026-05-06 16:26 | 41.36997 | 16.62304 | 38091 ft | 389 kts | 300° |
| 2026-05-06 16:27 | 41.39800 | 16.56139 | 38085 ft | 389 kts | 300° |
| 2026-05-06 16:27 | 41.42605 | 16.49955 | 38082 ft | 390 kts | 300° |
| 2026-05-06 16:28 | 41.45407 | 16.43767 | 38077 ft | 390 kts | 300° |
| 2026-05-06 16:28 | 41.48211 | 16.37557 | 38072 ft | 391 kts | 300° |
| 2026-05-06 16:29 | 41.51012 | 16.31351 | 38076 ft | 391 kts | 300° |
| 2026-05-06 16:29 | 41.53808 | 16.25136 | 38073 ft | 391 kts | 300° |
| 2026-05-06 16:30 | 41.56132 | 16.19962 | 38073 ft | 390 kts | 300° |
| 2026-05-06 16:30 | 41.59369 | 16.12741 | 38074 ft | 390 kts | 300° |
| 2026-05-06 16:31 | 41.62153 | 16.06519 | 38073 ft | 390 kts | 300° |
| 2026-05-06 16:31 | 41.64926 | 16.00304 | 38073 ft | 389 kts | 300° |
| 2026-05-06 16:32 | 41.67717 | 15.94037 | 38073 ft | 389 kts | 300° |
| 2026-05-06 16:32 | 41.70464 | 15.87858 | 38078 ft | 389 kts | 300° |
| 2026-05-06 16:33 | 41.73248 | 15.81581 | 38076 ft | 390 kts | 300° |
| 2026-05-06 16:34 | 41.77400 | 15.72193 | 38076 ft | 390 kts | 300° |
| 2026-05-06 16:34 | 41.80145 | 15.65972 | 38073 ft | 391 kts | 300° |
| 2026-05-06 16:35 | 41.82927 | 15.59650 | 38064 ft | 391 kts | 300° |
| 2026-05-06 16:35 | 41.85674 | 15.53399 | 38061 ft | 391 kts | 300° |
| 2026-05-06 16:36 | 41.88431 | 15.47117 | 38066 ft | 390 kts | 300° |
| 2026-05-06 16:36 | 41.91181 | 15.40831 | 38079 ft | 390 kts | 300° |
| 2026-05-06 16:37 | 41.93922 | 15.34553 | 38077 ft | 390 kts | 299° |
| 2026-05-06 16:37 | 41.96657 | 15.28270 | 38065 ft | 390 kts | 299° |
| 2026-05-06 16:38 | 41.99395 | 15.21972 | 38065 ft | 390 kts | 299° |
| 2026-05-06 16:38 | 42.02128 | 15.15677 | 38058 ft | 390 kts | 299° |
| 2026-05-06 16:39 | 42.04867 | 15.09355 | 38057 ft | 391 kts | 299° |
| 2026-05-06 16:39 | 42.07602 | 15.03024 | 38057 ft | 392 kts | 299° |
| 2026-05-06 16:40 | 42.10342 | 14.96670 | 38056 ft | 393 kts | 299° |
| 2026-05-06 16:40 | 42.13076 | 14.90305 | 38058 ft | 393 kts | 299° |
| 2026-05-06 16:41 | 42.15819 | 14.83917 | 38057 ft | 394 kts | 299° |
| 2026-05-06 16:41 | 42.18558 | 14.77522 | 38056 ft | 394 kts | 299° |
| 2026-05-06 16:42 | 42.21300 | 14.71107 | 38056 ft | 395 kts | 299° |
| 2026-05-06 16:42 | 42.24036 | 14.64696 | 38058 ft | 394 kts | 299° |
| 2026-05-06 16:43 | 42.26764 | 14.58283 | 38054 ft | 394 kts | 299° |
| 2026-05-06 16:43 | 42.29471 | 14.51906 | 38055 ft | 393 kts | 299° |
| 2026-05-06 16:44 | 42.32186 | 14.45497 | 38055 ft | 393 kts | 299° |
| 2026-05-06 16:44 | 42.34899 | 14.39081 | 38049 ft | 393 kts | 298° |
| 2026-05-06 16:45 | 42.37603 | 14.32669 | 38043 ft | 392 kts | 298° |
| 2026-05-06 16:45 | 42.40300 | 14.26263 | 38047 ft | 392 kts | 298° |
| 2026-05-06 16:46 | 42.42998 | 14.19843 | 38049 ft | 392 kts | 298° |
| 2026-05-06 16:46 | 42.44440 | 14.16724 | 38035 ft | 391 kts | 309° |
| 2026-05-06 16:46 | 42.46440 | 14.14230 | 38050 ft | 393 kts | 324° |
| 2026-05-06 16:46 | 42.48875 | 14.12537 | 38049 ft | 397 kts | 339° |
| 2026-05-06 16:47 | 42.51586 | 14.11735 | 38042 ft | 403 kts | 354° |
| 2026-05-06 16:47 | 42.54396 | 14.11965 | 38037 ft | 409 kts | 10° |
| 2026-05-06 16:47 | 42.57079 | 14.13306 | 38040 ft | 415 kts | 27° |
| 2026-05-06 16:47 | 42.59379 | 14.15694 | 38045 ft | 421 kts | 45° |
| 2026-05-06 16:48 | 42.61076 | 14.18956 | 38050 ft | 427 kts | 63° |
| 2026-05-06 16:48 | 42.61992 | 14.22791 | 38051 ft | 431 kts | 82° |
| 2026-05-06 16:48 | 42.62040 | 14.26857 | 38060 ft | 433 kts | 98° |
| 2026-05-06 16:48 | 42.61279 | 14.30810 | 38038 ft | 435 kts | 116° |
| 2026-05-06 16:49 | 42.59841 | 14.34409 | 38070 ft | 434 kts | 121° |
| 2026-05-06 16:49 | 42.56780 | 14.41521 | 38059 ft | 439 kts | 121° |
| 2026-05-06 16:50 | 42.53773 | 14.48777 | 38053 ft | 442 kts | 120° |
| 2026-05-06 16:50 | 42.50133 | 14.55322 | 38055 ft | 432 kts | 149° |
| 2026-05-06 16:50 | 42.48401 | 14.56612 | 38051 ft | 427 kts | 162° |
| 2026-05-06 16:51 | 42.44571 | 14.57602 | 38053 ft | 417 kts | 185° |
| 2026-05-06 16:51 | 42.41733 | 14.57056 | 38050 ft | 410 kts | 200° |
| 2026-05-06 16:51 | 42.39157 | 14.55508 | 38043 ft | 403 kts | 217° |
| 2026-05-06 16:51 | 42.37040 | 14.53085 | 38055 ft | 397 kts | 232° |
| 2026-05-06 16:52 | 42.35535 | 14.50012 | 38057 ft | 392 kts | 248° |
| 2026-05-06 16:52 | 42.34726 | 14.46523 | 38057 ft | 389 kts | 263° |
| 2026-05-06 16:52 | 42.34619 | 14.42880 | 38054 ft | 388 kts | 275° |
| 2026-05-06 16:52 | 42.35082 | 14.39287 | 38043 ft | 389 kts | 289° |
| 2026-05-06 16:53 | 42.36244 | 14.35983 | 38065 ft | 389 kts | 298° |
| 2026-05-06 16:53 | 42.38957 | 14.29653 | 38055 ft | 394 kts | 299° |
| 2026-05-06 16:54 | 42.41662 | 14.23170 | 38057 ft | 397 kts | 298° |
| 2026-05-06 16:54 | 42.44411 | 14.16662 | 38033 ft | 398 kts | 308° |
| 2026-05-06 16:54 | 42.46414 | 14.14101 | 38052 ft | 400 kts | 325° |
| 2026-05-06 16:55 | 42.48911 | 14.12421 | 38052 ft | 404 kts | 340° |
| 2026-05-06 16:55 | 42.51674 | 14.11662 | 38043 ft | 408 kts | 354° |
| 2026-05-06 16:55 | 42.54518 | 14.11923 | 38037 ft | 413 kts | 11° |
| 2026-05-06 16:55 | 42.57216 | 14.13281 | 38040 ft | 419 kts | 27° |
| 2026-05-06 16:56 | 42.59533 | 14.15694 | 38042 ft | 423 kts | 45° |
| 2026-05-06 16:56 | 42.61228 | 14.18969 | 38051 ft | 427 kts | 63° |
| 2026-05-06 16:56 | 42.62139 | 14.22799 | 38044 ft | 430 kts | 82° |
| 2026-05-06 16:56 | 42.62192 | 14.26851 | 38053 ft | 431 kts | 97° |
| 2026-05-06 16:57 | 42.61464 | 14.30787 | 38038 ft | 431 kts | 116° |
| 2026-05-06 16:57 | 42.58537 | 14.37867 | 38052 ft | 432 kts | 121° |
| 2026-05-06 16:58 | 42.55528 | 14.44972 | 38055 ft | 437 kts | 120° |
| 2026-05-06 16:58 | 42.52540 | 14.52183 | 38040 ft | 438 kts | 125° |
| 2026-05-06 16:58 | 42.50502 | 14.55201 | 38058 ft | 432 kts | 147° |
| 2026-05-06 16:59 | 42.47913 | 14.57087 | 38043 ft | 427 kts | 165° |
| 2026-05-06 16:59 | 42.45026 | 14.57835 | 38056 ft | 420 kts | 182° |
| 2026-05-06 16:59 | 42.42149 | 14.57470 | 38051 ft | 415 kts | 198° |
| 2026-05-06 16:59 | 42.39493 | 14.56053 | 38045 ft | 408 kts | 214° |
| 2026-05-06 17:00 | 42.37277 | 14.53717 | 38055 ft | 402 kts | 230° |
| 2026-05-06 17:00 | 42.35658 | 14.50673 | 38059 ft | 398 kts | 246° |
| 2026-05-06 17:00 | 42.34740 | 14.47184 | 38057 ft | 394 kts | 261° |
| 2026-05-06 17:00 | 42.34544 | 14.43501 | 38057 ft | 393 kts | 274° |
| 2026-05-06 17:01 | 42.34933 | 14.39868 | 38056 ft | 393 kts | 287° |
| 2026-05-06 17:01 | 42.36015 | 14.36505 | 38064 ft | 393 kts | 298° |
| 2026-05-06 17:01 | 42.37380 | 14.33294 | 38044 ft | 395 kts | 299° |
| 2026-05-06 17:02 | 42.40123 | 14.26890 | 38050 ft | 396 kts | 298° |
| 2026-05-06 17:02 | 42.42795 | 14.20394 | 38051 ft | 397 kts | 298° |
| 2026-05-06 17:03 | 42.45368 | 14.15248 | 38043 ft | 396 kts | 317° |
| 2026-05-06 17:03 | 42.47644 | 14.13151 | 38052 ft | 398 kts | 333° |
| 2026-05-06 17:03 | 42.50241 | 14.11949 | 38048 ft | 402 kts | 347° |
| 2026-05-06 17:03 | 42.53075 | 14.11675 | 38034 ft | 407 kts | 2° |
| 2026-05-06 17:04 | 42.55858 | 14.12464 | 38048 ft | 412 kts | 19° |
| 2026-05-06 17:04 | 42.58358 | 14.14298 | 38039 ft | 418 kts | 36° |
| 2026-05-06 17:04 | 42.60398 | 14.17123 | 38046 ft | 423 kts | 54° |
| 2026-05-06 17:04 | 42.61754 | 14.20722 | 38053 ft | 427 kts | 72° |
| 2026-05-06 17:05 | 42.62259 | 14.24644 | 38050 ft | 430 kts | 89° |
| 2026-05-06 17:05 | 42.61965 | 14.28693 | 38056 ft | 432 kts | 104° |
| 2026-05-06 17:05 | 42.60851 | 14.32461 | 38047 ft | 431 kts | 120° |
| 2026-05-06 17:06 | 42.57827 | 14.39527 | 38054 ft | 436 kts | 121° |
| 2026-05-06 17:06 | 42.54807 | 14.46721 | 38055 ft | 441 kts | 120° |
| 2026-05-06 17:07 | 42.51635 | 14.53824 | 38036 ft | 438 kts | 135° |
| 2026-05-06 17:07 | 42.49276 | 14.56336 | 38062 ft | 430 kts | 156° |
| 2026-05-06 17:07 | 42.46479 | 14.57637 | 38042 ft | 423 kts | 174° |
| 2026-05-06 17:07 | 42.43572 | 14.57780 | 38053 ft | 416 kts | 190° |
| 2026-05-06 17:08 | 42.40784 | 14.56866 | 38050 ft | 409 kts | 206° |
| 2026-05-06 17:08 | 42.38340 | 14.54987 | 38045 ft | 403 kts | 222° |
| 2026-05-06 17:08 | 42.36411 | 14.52293 | 38057 ft | 397 kts | 238° |
| 2026-05-06 17:08 | 42.35132 | 14.49022 | 38058 ft | 393 kts | 253° |
| 2026-05-06 17:09 | 42.34572 | 14.45441 | 38054 ft | 391 kts | 268° |
| 2026-05-06 17:09 | 42.34663 | 14.41775 | 38065 ft | 390 kts | 279° |
| 2026-05-06 17:09 | 42.35351 | 14.38263 | 38037 ft | 391 kts | 295° |
| 2026-05-06 17:10 | 42.38009 | 14.31855 | 38054 ft | 392 kts | 299° |
| 2026-05-06 17:10 | 42.40733 | 14.25423 | 38053 ft | 395 kts | 298° |
| 2026-05-06 17:11 | 42.43398 | 14.18911 | 38055 ft | 397 kts | 298° |
| 2026-05-06 17:11 | 42.44935 | 14.15830 | 38033 ft | 396 kts | 313° |
| 2026-05-06 17:11 | 42.47102 | 14.13543 | 38057 ft | 399 kts | 329° |
| 2026-05-06 17:11 | 42.49682 | 14.12121 | 38049 ft | 403 kts | 344° |
| 2026-05-06 17:12 | 42.52477 | 14.11636 | 38044 ft | 408 kts | 359° |
| 2026-05-06 17:12 | 42.55302 | 14.12197 | 38035 ft | 414 kts | 15° |
| 2026-05-06 17:12 | 42.57915 | 14.13856 | 38043 ft | 420 kts | 32° |
| 2026-05-06 17:12 | 42.60079 | 14.16533 | 38044 ft | 425 kts | 50° |
| 2026-05-06 17:13 | 42.61572 | 14.20006 | 38046 ft | 429 kts | 69° |
| 2026-05-06 17:13 | 42.62241 | 14.23945 | 38047 ft | 432 kts | 86° |
| 2026-05-06 17:13 | 42.62005 | 14.28014 | 38041 ft | 433 kts | 105° |
| 2026-05-06 17:13 | 42.60871 | 14.31775 | 38041 ft | 431 kts | 124° |
| 2026-05-06 17:14 | 42.58953 | 14.34866 | 38047 ft | 428 kts | 143° |
| 2026-05-06 17:14 | 42.56460 | 14.36990 | 38051 ft | 423 kts | 161° |
| 2026-05-06 17:14 | 42.53633 | 14.38028 | 38059 ft | 421 kts | 173° |
| 2026-05-06 17:15 | 42.47732 | 14.38975 | 38039 ft | 432 kts | 188° |
| 2026-05-06 17:15 | 42.44848 | 14.37957 | 38050 ft | 429 kts | 210° |
| 2026-05-06 17:15 | 42.43276 | 14.36609 | 38057 ft | 428 kts | 224° |
| 2026-05-06 17:15 | 42.41381 | 14.33537 | 38058 ft | 428 kts | 245° |
| 2026-05-06 17:16 | 42.40467 | 14.29724 | 38053 ft | 430 kts | 265° |
| 2026-05-06 17:16 | 42.40864 | 14.21595 | 38052 ft | 441 kts | 282° |
| 2026-05-06 17:16 | 42.41947 | 14.17713 | 38053 ft | 446 kts | 299° |
| 2026-05-06 17:17 | 42.43659 | 14.14179 | 38056 ft | 451 kts | 304° |
| 2026-05-06 17:17 | 42.47178 | 14.07151 | 38049 ft | 451 kts | 300° |
| 2026-05-06 17:18 | 42.50173 | 13.99690 | 38047 ft | 450 kts | 295° |
| 2026-05-06 17:18 | 42.52835 | 13.92078 | 38048 ft | 449 kts | 294° |
| 2026-05-06 17:19 | 42.55457 | 13.84403 | 38049 ft | 448 kts | 294° |
| 2026-05-06 17:19 | 42.58084 | 13.76754 | 38060 ft | 447 kts | 294° |
| 2026-05-06 17:20 | 42.60719 | 13.69107 | 38052 ft | 447 kts | 294° |
| 2026-05-06 17:20 | 42.63345 | 13.61469 | 38059 ft | 447 kts | 294° |
| 2026-05-06 17:21 | 42.65966 | 13.53828 | 38066 ft | 447 kts | 294° |
| 2026-05-06 17:21 | 42.68778 | 13.46285 | 38065 ft | 450 kts | 300° |
| 2026-05-06 17:22 | 42.72497 | 13.39308 | 38094 ft | 460 kts | 306° |
| 2026-05-06 17:22 | 42.76459 | 13.32412 | 38072 ft | 464 kts | 307° |
| 2026-05-06 17:23 | 42.80425 | 13.25453 | 38058 ft | 466 kts | 306° |
| 2026-05-06 17:23 | 42.84371 | 13.18461 | 38054 ft | 465 kts | 306° |
| 2026-05-06 17:24 | 42.88288 | 13.11489 | 38058 ft | 463 kts | 306° |
| 2026-05-06 17:24 | 42.92185 | 13.04527 | 38065 ft | 461 kts | 306° |
| 2026-05-06 17:25 | 42.96070 | 12.97583 | 38056 ft | 460 kts | 306° |
| 2026-05-06 17:25 | 42.99948 | 12.90643 | 38058 ft | 459 kts | 306° |
| 2026-05-06 17:26 | 43.03821 | 12.83694 | 38055 ft | 459 kts | 306° |
| 2026-05-06 17:26 | 43.07684 | 12.76737 | 38063 ft | 459 kts | 306° |
| 2026-05-06 17:27 | 43.11545 | 12.69767 | 38048 ft | 460 kts | 305° |
| 2026-05-06 17:27 | 43.15413 | 12.62771 | 38046 ft | 461 kts | 305° |
| 2026-05-06 17:28 | 43.19253 | 12.55810 | 38043 ft | 461 kts | 305° |
| 2026-05-06 17:28 | 43.23117 | 12.48790 | 38047 ft | 461 kts | 305° |
| 2026-05-06 17:29 | 43.27000 | 12.41713 | 38047 ft | 462 kts | 305° |
| 2026-05-06 17:29 | 43.30861 | 12.34664 | 38041 ft | 462 kts | 305° |
| 2026-05-06 17:30 | 43.34719 | 12.27601 | 38031 ft | 462 kts | 305° |
| 2026-05-06 17:30 | 43.38539 | 12.20595 | 38038 ft | 461 kts | 305° |
| 2026-05-06 17:31 | 43.42384 | 12.13527 | 38028 ft | 461 kts | 305° |
| 2026-05-06 17:31 | 43.46221 | 12.06450 | 38021 ft | 461 kts | 305° |
| 2026-05-06 17:32 | 43.50037 | 11.99398 | 38015 ft | 461 kts | 305° |
| 2026-05-06 17:32 | 43.53870 | 11.92298 | 38006 ft | 461 kts | 305° |
| 2026-05-06 17:33 | 43.57697 | 11.85193 | 38003 ft | 461 kts | 305° |
| 2026-05-06 17:33 | 43.61518 | 11.78082 | 37998 ft | 461 kts | 304° |
| 2026-05-06 17:34 | 43.65326 | 11.70975 | 38000 ft | 461 kts | 304° |
| 2026-05-06 17:34 | 43.69133 | 11.63853 | 37996 ft | 461 kts | 304° |
| 2026-05-06 17:35 | 43.72939 | 11.56720 | 37997 ft | 461 kts | 304° |
| 2026-05-06 17:35 | 43.76745 | 11.49566 | 37991 ft | 461 kts | 304° |
| 2026-05-06 17:36 | 43.82443 | 11.38819 | 37992 ft | 462 kts | 304° |
| 2026-05-06 17:36 | 43.86236 | 11.31646 | 37994 ft | 462 kts | 304° |
| 2026-05-06 17:37 | 43.90027 | 11.24457 | 37994 ft | 461 kts | 304° |
| 2026-05-06 17:37 | 43.93810 | 11.17272 | 37997 ft | 461 kts | 304° |
| 2026-05-06 17:38 | 43.97592 | 11.10065 | 37994 ft | 462 kts | 304° |
| 2026-05-06 17:38 | 44.01225 | 11.02794 | 38007 ft | 460 kts | 298° |
| 2026-05-06 17:39 | 44.03926 | 10.94781 | 38024 ft | 458 kts | 288° |
| 2026-05-06 17:39 | 44.05792 | 10.86305 | 38034 ft | 458 kts | 285° |
| 2026-05-06 17:40 | 44.07566 | 10.77804 | 38051 ft | 458 kts | 285° |
| 2026-05-06 17:40 | 44.09369 | 10.69289 | 38059 ft | 459 kts | 285° |
| 2026-05-06 17:41 | 44.11186 | 10.60773 | 38066 ft | 459 kts | 285° |
| 2026-05-06 17:41 | 44.12999 | 10.52253 | 37927 ft | 457 kts | 285° |
| 2026-05-06 17:42 | 44.13901 | 10.47996 | 37175 ft | 461 kts | 285° |
| 2026-05-06 17:42 | 44.14804 | 10.43727 | 36525 ft | 457 kts | 285° |
| 2026-05-06 17:42 | 44.15693 | 10.39522 | 36279 ft | 453 kts | 284° |
| 2026-05-06 17:42 | 44.16585 | 10.35283 | 36146 ft | 456 kts | 284° |
| 2026-05-06 17:43 | 44.17465 | 10.31066 | 35798 ft | 451 kts | 284° |
| 2026-05-06 17:43 | 44.18328 | 10.26892 | 35223 ft | 447 kts | 284° |
| 2026-05-06 17:43 | 44.19190 | 10.22707 | 34276 ft | 452 kts | 284° |
| 2026-05-06 17:43 | 44.20061 | 10.18478 | 33269 ft | 457 kts | 284° |
| 2026-05-06 17:44 | 44.20929 | 10.14267 | 32433 ft | 458 kts | 285° |
| 2026-05-06 17:44 | 44.21995 | 10.10023 | 31757 ft | 456 kts | 291° |
| 2026-05-06 17:44 | 44.23334 | 10.06051 | 31200 ft | 452 kts | 295° |
| 2026-05-06 17:44 | 44.24816 | 10.02357 | 30669 ft | 448 kts | 300° |
| 2026-05-06 17:45 | 44.26565 | 9.98778 | 30084 ft | 445 kts | 303° |
| 2026-05-06 17:45 | 44.28373 | 9.95288 | 29485 ft | 442 kts | 304° |
| 2026-05-06 17:45 | 44.30168 | 9.91844 | 28860 ft | 438 kts | 304° |
| 2026-05-06 17:45 | 44.31956 | 9.88400 | 28224 ft | 435 kts | 303° |
| 2026-05-06 17:46 | 44.33690 | 9.85032 | 27603 ft | 433 kts | 303° |
| 2026-05-06 17:46 | 44.35366 | 9.81757 | 27007 ft | 430 kts | 303° |
| 2026-05-06 17:46 | 44.37097 | 9.78362 | 26402 ft | 427 kts | 303° |
| 2026-05-06 17:46 | 44.38815 | 9.74985 | 25828 ft | 424 kts | 303° |
| 2026-05-06 17:47 | 44.40516 | 9.71636 | 25208 ft | 422 kts | 303° |
| 2026-05-06 17:47 | 44.42209 | 9.68303 | 24621 ft | 419 kts | 303° |
| 2026-05-06 17:47 | 44.43892 | 9.64984 | 24046 ft | 416 kts | 303° |
| 2026-05-06 17:47 | 44.45600 | 9.61727 | 23476 ft | 414 kts | 307° |
| 2026-05-06 17:48 | 44.47512 | 9.58739 | 22902 ft | 412 kts | 312° |
| 2026-05-06 17:48 | 44.49511 | 9.55868 | 22384 ft | 409 kts | 312° |
| 2026-05-06 17:48 | 44.51492 | 9.53034 | 21886 ft | 405 kts | 312° |
| 2026-05-06 17:48 | 44.53444 | 9.50228 | 21373 ft | 402 kts | 312° |
| 2026-05-06 17:49 | 44.55386 | 9.47420 | 20852 ft | 399 kts | 311° |
| 2026-05-06 17:49 | 44.56659 | 9.45570 | 20514 ft | 397 kts | 311° |
| 2026-05-06 17:49 | 44.58564 | 9.42794 | 20003 ft | 394 kts | 311° |
| 2026-05-06 17:49 | 44.60455 | 9.40028 | 19527 ft | 391 kts | 311° |
| 2026-05-06 17:50 | 44.62327 | 9.37288 | 19020 ft | 387 kts | 311° |
| 2026-05-06 17:50 | 44.64185 | 9.34571 | 18518 ft | 385 kts | 311° |
| 2026-05-06 17:50 | 44.66034 | 9.31861 | 18025 ft | 382 kts | 311° |
| 2026-05-06 17:50 | 44.67862 | 9.29177 | 17550 ft | 379 kts | 311° |
| 2026-05-06 17:51 | 44.69675 | 9.26514 | 17074 ft | 376 kts | 311° |
| 2026-05-06 17:51 | 44.71480 | 9.23860 | 16571 ft | 374 kts | 311° |
| 2026-05-06 17:51 | 44.73266 | 9.21229 | 16113 ft | 371 kts | 311° |
| 2026-05-06 17:51 | 44.75047 | 9.18623 | 15625 ft | 368 kts | 313° |
| 2026-05-06 17:52 | 44.76878 | 9.16299 | 15138 ft | 368 kts | 319° |
| 2026-05-06 17:52 | 44.78948 | 9.14212 | 14649 ft | 366 kts | 323° |
| 2026-05-06 17:52 | 44.81037 | 9.12191 | 14156 ft | 364 kts | 323° |
| 2026-05-06 17:52 | 44.83112 | 9.10178 | 13667 ft | 361 kts | 323° |
| 2026-05-06 17:53 | 44.85171 | 9.08166 | 13177 ft | 359 kts | 323° |
| 2026-05-06 17:53 | 44.87207 | 9.06162 | 12692 ft | 356 kts | 323° |
| 2026-05-06 17:53 | 44.89226 | 9.04167 | 12231 ft | 353 kts | 323° |
| 2026-05-06 17:53 | 44.91230 | 9.02186 | 11802 ft | 349 kts | 323° |
| 2026-05-06 17:54 | 44.93178 | 9.00262 | 11718 ft | 335 kts | 323° |
| 2026-05-06 17:54 | 44.95055 | 8.98412 | 11639 ft | 322 kts | 323° |
| 2026-05-06 17:54 | 44.96906 | 8.96823 | 11536 ft | 313 kts | 335° |
| 2026-05-06 17:54 | 44.98987 | 8.95929 | 11451 ft | 303 kts | 344° |
| 2026-05-06 17:55 | 45.01002 | 8.95223 | 11312 ft | 294 kts | 343° |
| 2026-05-06 17:55 | 45.02959 | 8.94510 | 11083 ft | 289 kts | 343° |
| 2026-05-06 17:55 | 45.04898 | 8.93790 | 10760 ft | 287 kts | 343° |
| 2026-05-06 17:55 | 45.06826 | 8.93063 | 10435 ft | 287 kts | 343° |
| 2026-05-06 17:56 | 45.08754 | 8.92331 | 10114 ft | 286 kts | 343° |
| 2026-05-06 17:56 | 45.10663 | 8.91601 | 9808 ft | 284 kts | 343° |
| 2026-05-06 17:56 | 45.12567 | 8.90873 | 9490 ft | 283 kts | 343° |
| 2026-05-06 17:56 | 45.14436 | 8.90155 | 9174 ft | 281 kts | 343° |
| 2026-05-06 17:57 | 45.16342 | 8.89402 | 8864 ft | 280 kts | 343° |
| 2026-05-06 17:57 | 45.18208 | 8.88653 | 8548 ft | 279 kts | 343° |
| 2026-05-06 17:57 | 45.20061 | 8.87908 | 8250 ft | 277 kts | 343° |
| 2026-05-06 17:57 | 45.21910 | 8.87165 | 7951 ft | 276 kts | 343° |
| 2026-05-06 17:58 | 45.23725 | 8.86437 | 7667 ft | 274 kts | 343° |
| 2026-05-06 17:58 | 45.25552 | 8.85702 | 7364 ft | 272 kts | 343° |
| 2026-05-06 17:58 | 45.27373 | 8.84970 | 7065 ft | 270 kts | 343° |
| 2026-05-06 17:58 | 45.29180 | 8.84244 | 6758 ft | 269 kts | 343° |
| 2026-05-06 17:59 | 45.30979 | 8.83524 | 6450 ft | 268 kts | 343° |
| 2026-05-06 17:59 | 45.32767 | 8.82803 | 6162 ft | 266 kts | 343° |
| 2026-05-06 17:59 | 45.34523 | 8.82092 | 6030 ft | 259 kts | 343° |
| 2026-05-06 17:59 | 45.36189 | 8.81421 | 5893 ft | 239 kts | 343° |
| 2026-05-06 18:00 | 45.37727 | 8.80803 | 5733 ft | 219 kts | 343° |
| 2026-05-06 18:00 | 45.39124 | 8.80240 | 5618 ft | 199 kts | 343° |
| 2026-05-06 18:00 | 45.40200 | 8.79787 | 5358 ft | 191 kts | 344° |
| 2026-05-06 18:00 | 45.41469 | 8.79334 | 4979 ft | 187 kts | 347° |
| 2026-05-06 18:01 | 45.42735 | 8.78950 | 4595 ft | 186 kts | 348° |
| 2026-05-06 18:01 | 45.44014 | 8.78588 | 4391 ft | 185 kts | 348° |
| 2026-05-06 18:01 | 45.45260 | 8.78242 | 4155 ft | 182 kts | 348° |
| 2026-05-06 18:01 | 45.46498 | 8.77903 | 3980 ft | 178 kts | 348° |
| 2026-05-06 18:02 | 45.47717 | 8.77564 | 3920 ft | 180 kts | 349° |
| 2026-05-06 18:02 | 45.48977 | 8.77220 | 3566 ft | 187 kts | 349° |
| 2026-05-06 18:02 | 45.50223 | 8.76885 | 3122 ft | 179 kts | 349° |
| 2026-05-06 18:02 | 45.51401 | 8.76567 | 2693 ft | 166 kts | 348° |
| 2026-05-06 18:03 | 45.52549 | 8.76240 | 2518 ft | 169 kts | 348° |
| 2026-05-06 18:03 | 45.53624 | 8.75941 | 2299 ft | 162 kts | 349° |
| 2026-05-06 18:03 | 45.54709 | 8.75641 | 2110 ft | 156 kts | 349° |
| 2026-05-06 18:03 | 45.55749 | 8.75355 | 1883 ft | 148 kts | 349° |
| 2026-05-06 18:04 | 45.56738 | 8.75082 | 1693 ft | 144 kts | 349° |
| 2026-05-06 18:04 | 45.57716 | 8.74813 | 1512 ft | 143 kts | 349° |
| 2026-05-06 18:04 | 45.58698 | 8.74542 | 1321 ft | 143 kts | 349° |
| 2026-05-06 18:04 | 45.59676 | 8.74272 | 1136 ft | 143 kts | 349° |
| 2026-05-06 18:05 | 45.60651 | 8.74002 | 942 ft | 143 kts | 349° |
| 2026-05-06 18:05 | 45.61625 | 8.73736 | 784 ft | 142 kts | 349° |
| 2026-05-06 18:05 | 45.62544 | 8.73482 | 743 ft | 122 kts | 349° |
| 2026-05-06 18:05 | 45.63198 | 8.73301 | 740 ft | 69 kts | 349° |
| 2026-05-06 18:06 | 45.63556 | 8.73195 | 742 ft | 48 kts | 341° |
| 2026-05-06 18:06 | 45.63776 | 8.72989 | 739 ft | 22 kts | 310° |
| 2026-05-06 18:06 | 45.63810 | 8.72923 | 741 ft | 4 kts | 306° |
| 2026-05-06 18:06 | 45.63838 | 8.72867 | 741 ft | 10 kts | 305° |
| 2026-05-06 18:07 | 45.63881 | 8.72777 | 741 ft | 13 kts | 304° |
| 2026-05-06 18:07 | 45.63939 | 8.72647 | 739 ft | 18 kts | 296° |
| 2026-05-06 18:07 | 45.63941 | 8.72455 | 741 ft | 21 kts | 260° |
| 2026-05-06 18:07 | 45.63920 | 8.72267 | 740 ft | 20 kts | 266° |
| 2026-05-06 18:08 | 45.63910 | 8.72049 | 741 ft | 24 kts | 266° |
| 2026-05-06 18:08 | 45.63838 | 8.71834 | 742 ft | 23 kts | 199° |
| 2026-05-06 18:08 | 45.63776 | 8.71830 | 740 ft | 10 kts | 168° |
| 2026-05-06 18:08 | 45.63697 | 8.71854 | 741 ft | 15 kts | 170° |
| 2026-05-06 18:09 | 45.63580 | 8.71887 | 741 ft | 20 kts | 169° |
| 2026-05-06 18:09 | 45.63428 | 8.71927 | 741 ft | 25 kts | 169° |
| 2026-05-06 18:09 | 45.63250 | 8.71976 | 740 ft | 25 kts | 169° |
| 2026-05-06 18:09 | 45.63138 | 8.72007 | 740 ft | 15 kts | 169° |
| 2026-05-06 18:10 | 45.63051 | 8.72032 | 742 ft | 10 kts | 168° |
| 2026-05-06 18:10 | 45.63008 | 8.72044 | 742 ft | 2 kts | 167° |
| 2026-05-06 18:10 | 45.62987 | 8.72051 | 742 ft | 4 kts | 167° |
| 2026-05-06 18:10 | 45.62956 | 8.72059 | 739 ft | 5 kts | 170° |
| 2026-05-06 18:11 | 45.62908 | 8.72071 | 739 ft | 9 kts | 170° |
| 2026-05-06 18:11 | 45.62835 | 8.72091 | 740 ft | 12 kts | 169° |
| 2026-05-06 18:11 | 45.62740 | 8.72112 | 741 ft | 15 kts | 183° |
| 2026-05-06 18:11 | 45.62676 | 8.72002 | 741 ft | 16 kts | 255° |
| 2026-05-06 18:12 | 45.62678 | 8.71840 | 740 ft | 18 kts | 314° |
| 2026-05-06 18:12 | 45.62801 | 8.71788 | 739 ft | 20 kts | 348° |
| 2026-05-06 18:12 | 45.62918 | 8.71756 | 740 ft | 15 kts | 347° |
| 2026-05-06 18:12 | 45.62951 | 8.71671 | 739 ft | 10 kts | 270° |
| 2026-05-06 18:13 | 45.62938 | 8.71557 | 740 ft | 11 kts | 259° |
| 2026-05-06 18:13 | 45.62913 | 8.71520 | 738 ft | 6 kts | 188° |
| 2026-05-06 18:13 | 45.62876 | 8.71520 | 740 ft | 3 kts | 181° |
| 2026-05-06 18:13 | 45.62862 | 8.71522 | 741 ft | 2 kts | 171° |
| 2026-05-06 18:14 | 45.62855 | 8.71523 | 741 ft | 0 kts | 169° |